Time;durP1;ratioP1;P1;durP2;ratioP2;P2;SDS_P1;SDS_P2;PMS_P1;PMS_P2;Temp;Humidity;BMP_temperature;BMP_pressure;BME280_temperature;BME280_humidity;BME280_pressure;Samples;Min_cycle;Max_cycle;Signal;HPM_P1;HPM_P2
2022/08/28 00:01:57;;;;;;;21.67;11.55;;;;;;;;;;5013916;28;20025;-63
2022/08/28 00:04:23;;;;;;;23.83;11.40;;;;;;;;;;5029600;28;20041;-63
2022/08/28 00:06:49;;;;;;;22.23;10.35;;;;;;;;;;5014391;28;20025;-63
2022/08/28 00:09:15;;;;;;;23.27;11.88;;;;;;;;;;5014002;28;20116;-63
2022/08/28 00:11:41;;;;;;;22.05;11.15;;;;;;;;;;5029350;28;20030;-63
2022/08/28 00:14:08;;;;;;;25.83;11.80;;;;;;;;;;5013995;28;20022;-63
2022/08/28 00:16:35;;;;;;;24.42;10.60;;;;;;;;;;5014320;28;20096;-63
2022/08/28 00:19:01;;;;;;;19.27;10.40;;;;;;;;;;5013547;28;20022;-63
2022/08/28 00:21:28;;;;;;;23.15;10.63;;;;;;;;;;5013786;28;20105;-64
2022/08/28 00:23:54;;;;;;;19.42;10.20;;;;;;;;;;5013869;28;20031;-63
2022/08/28 00:29:05;;;;;;;22.80;11.15;;;;;;;;;;5013680;28;20033;-64
2022/08/28 00:31:32;;;;;;;18.58;10.27;;;;;;;;;;5013577;28;20029;-64
2022/08/28 00:33:58;;;;;;;18.73;9.88;;;;;;;;;;5028728;28;20398;-64
2022/08/28 00:36:24;;;;;;;21.10;11.02;;;;;;;;;;5013540;28;20072;-64
2022/08/28 00:38:50;;;;;;;21.88;11.55;;;;;;;;;;5013270;28;20128;-64
2022/08/28 00:41:16;;;;;;;20.50;11.00;;;;;;;;;;5028478;28;20486;-64
2022/08/28 00:43:43;;;;;;;20.30;11.80;;;;;;;;;;5028539;28;20470;-63
2022/08/28 00:46:12;;;;;;;20.85;10.90;;;;;;;;;;5013448;28;20022;-64
2022/08/28 00:48:38;;;;;;;21.80;10.85;;;;;;;;;;5028119;28;20065;-64
2022/08/28 00:53:50;;;;;;;20.65;10.50;;;;;;;;;;5013272;28;20099;-64
2022/08/28 00:56:16;;;;;;;24.48;12.50;;;;;;;;;;5028407;28;20046;-64
2022/08/28 00:58:44;;;;;;;21.90;11.05;;;;;;;;;;5012969;28;20048;-63
2022/08/28 01:01:10;;;;;;;21.85;10.52;;;;;;;;;;5028504;28;20481;-63
2022/08/28 01:03:37;;;;;;;22.13;10.98;;;;;;;;;;5012971;28;20025;-64
2022/08/28 01:06:03;;;;;;;20.10;9.98;;;;;;;;;;5012823;28;20494;-64
2022/08/28 01:08:30;;;;;;;21.38;11.00;;;;;;;;;;5027876;28;20125;-64
2022/08/28 01:10:57;;;;;;;21.92;11.25;;;;;;;;;;5012837;28;20029;-64
2022/08/28 01:13:24;;;;;;;19.55;10.48;;;;;;;;;;5012734;28;20057;-64
2022/08/28 01:15:50;;;;;;;25.30;10.95;;;;;;;;;;5027494;28;20418;-63
2022/08/28 01:18:17;;;;;;;21.23;10.38;;;;;;;;;;5012642;28;20464;-63
2022/08/28 01:20:46;;;;;;;21.42;10.57;;;;;;;;;;5012758;28;20105;-63
2022/08/28 01:23:18;;;;;;;21.00;10.82;;;;;;;;;;5012762;28;20490;-64
2022/08/28 01:25:44;;;;;;;23.05;11.45;;;;;;;;;;5012721;28;20112;-63
2022/08/28 01:28:11;;;;;;;19.45;9.98;;;;;;;;;;5012472;28;20038;-64
2022/08/28 01:30:38;;;;;;;24.30;10.75;;;;;;;;;;5027667;28;20029;-64
2022/08/28 01:33:04;;;;;;;23.05;11.18;;;;;;;;;;5012426;28;20441;-65
2022/08/28 01:35:33;;;;;;;19.15;10.90;;;;;;;;;;5027742;28;20018;-63
2022/08/28 01:37:59;;;;;;;22.92;11.05;;;;;;;;;;5012371;28;20026;-63
2022/08/28 01:40:27;;;;;;;20.70;10.55;;;;;;;;;;5012374;28;20030;-64
2022/08/28 01:42:53;;;;;;;21.50;10.30;;;;;;;;;;5022666;28;20087;-64
2022/08/28 01:45:20;;;;;;;24.85;10.30;;;;;;;;;;5052034;28;20052;-64
2022/08/28 01:47:47;;;;;;;22.02;10.75;;;;;;;;;;5051925;28;20052;-64
2022/08/28 01:50:15;;;;;;;23.75;10.82;;;;;;;;;;5052043;28;20397;-64
2022/08/28 01:52:41;;;;;;;21.40;10.82;;;;;;;;;;5051871;28;20486;-64
2022/08/28 01:55:07;;;;;;;25.33;11.77;;;;;;;;;;5051927;28;20389;-64
2022/08/28 01:57:34;;;;;;;24.33;11.00;;;;;;;;;;5051564;28;20032;-65
2022/08/28 02:00:00;;;;;;;26.65;10.88;;;;;;;;;;5051981;28;20531;-64
2022/08/28 02:02:27;;;;;;;22.48;11.05;;;;;;;;;;5050726;28;20056;-64
2022/08/28 02:04:53;;;;;;;21.33;10.60;;;;;;;;;;5051721;28;20392;-64
2022/08/28 02:07:19;;;;;;;21.83;11.15;;;;;;;;;;5051500;28;20473;-64
2022/08/28 02:09:45;;;;;;;22.92;11.18;;;;;;;;;;5050571;28;20033;-64
2022/08/28 02:12:11;;;;;;;20.08;10.82;;;;;;;;;;5051530;28;20021;-64
2022/08/28 02:14:37;;;;;;;27.25;11.43;;;;;;;;;;5050267;28;20116;-64
2022/08/28 02:17:03;;;;;;;26.25;11.52;;;;;;;;;;5051457;28;20020;-64
2022/08/28 02:19:31;;;;;;;21.45;10.60;;;;;;;;;;5051293;28;20086;-67
2022/08/28 02:21:57;;;;;;;24.48;11.40;;;;;;;;;;5051619;28;20100;-63
2022/08/28 02:24:23;;;;;;;19.85;10.60;;;;;;;;;;5051472;28;20033;-64
2022/08/28 02:26:49;;;;;;;19.80;10.57;;;;;;;;;;5054963;28;20017;-64
2022/08/28 02:29:16;;;;;;;20.95;10.43;;;;;;;;;;5054568;28;20477;-63
2022/08/28 02:31:42;;;;;;;21.73;10.40;;;;;;;;;;5055634;28;20087;-66
2022/08/28 02:34:08;;;;;;;21.30;11.00;;;;;;;;;;5055527;28;20021;-65
2022/08/28 02:36:34;;;;;;;23.67;12.20;;;;;;;;;;5055535;28;20079;-65
2022/08/28 02:39:00;;;;;;;19.95;10.57;;;;;;;;;;5055021;28;20033;-65
2022/08/28 02:41:26;;;;;;;22.00;10.82;;;;;;;;;;5055266;28;20021;-65
2022/08/28 02:43:52;;;;;;;23.38;10.90;;;;;;;;;;5055495;28;20025;-65
2022/08/28 02:46:18;;;;;;;21.13;10.48;;;;;;;;;;5054433;28;20688;-65
2022/08/28 02:48:44;;;;;;;20.45;10.93;;;;;;;;;;5058953;28;20029;-65
2022/08/28 02:51:12;;;;;;;25.73;10.80;;;;;;;;;;5058351;28;20037;-65
2022/08/28 02:53:38;;;;;;;20.15;10.23;;;;;;;;;;5057898;28;20052;-64
2022/08/28 02:56:04;;;;;;;19.85;10.98;;;;;;;;;;5057150;28;20032;-64
2022/08/28 02:58:31;;;;;;;25.00;11.38;;;;;;;;;;5054798;28;20028;-64
2022/08/28 03:00:59;;;;;;;20.25;10.93;;;;;;;;;;5055886;28;20025;-63
2022/08/28 03:03:25;;;;;;;22.95;11.02;;;;;;;;;;5055772;28;20024;-64
2022/08/28 03:05:51;;;;;;;19.67;10.30;;;;;;;;;;5053969;28;20025;-64
2022/08/28 03:08:17;;;;;;;33.38;11.45;;;;;;;;;;5055051;28;20028;-65
2022/08/28 03:10:43;;;;;;;20.20;11.23;;;;;;;;;;5054988;28;20036;-65
2022/08/28 03:13:10;;;;;;;23.95;11.50;;;;;;;;;;5055011;28;20090;-64
2022/08/28 03:15:37;;;;;;;21.38;10.93;;;;;;;;;;5055338;28;20027;-66
2022/08/28 03:18:03;;;;;;;22.15;11.13;;;;;;;;;;5053269;28;20029;-65
2022/08/28 03:20:29;;;;;;;22.17;9.95;;;;;;;;;;5054689;28;20021;-65
2022/08/28 03:25:39;;;;;;;21.33;10.60;;;;;;;;;;5054884;28;20086;-66
2022/08/28 03:28:05;;;;;;;22.38;10.30;;;;;;;;;;5054609;28;20448;-65
2022/08/28 03:30:31;;;;;;;22.85;11.13;;;;;;;;;;5054382;28;20025;-65
2022/08/28 03:32:57;;;;;;;24.30;12.35;;;;;;;;;;5054515;28;20025;-65
2022/08/28 03:35:23;;;;;;;21.75;10.55;;;;;;;;;;5053635;28;20017;-63
2022/08/28 03:37:49;;;;;;;24.67;11.10;;;;;;;;;;5053675;28;20017;-65
2022/08/28 03:40:15;;;;;;;21.73;10.77;;;;;;;;;;5053202;28;20061;-67
2022/08/28 03:42:42;;;;;;;22.25;11.18;;;;;;;;;;5054289;28;20100;-64
2022/08/28 03:45:09;;;;;;;24.05;13.13;;;;;;;;;;5054495;28;20017;-66
2022/08/28 03:47:36;;;;;;;25.63;11.68;;;;;;;;;;5054100;28;20041;-63
2022/08/28 03:50:03;;;;;;;24.58;11.45;;;;;;;;;;5054552;28;20024;-65
2022/08/28 03:52:30;;;;;;;25.40;12.63;;;;;;;;;;5054301;28;20526;-65
2022/08/28 03:54:56;;;;;;;23.67;11.25;;;;;;;;;;5054217;28;20043;-65
2022/08/28 03:57:23;;;;;;;24.17;11.90;;;;;;;;;;5053954;28;20024;-65
2022/08/28 03:59:50;;;;;;;22.42;10.65;;;;;;;;;;5052687;28;20055;-65
2022/08/28 04:02:19;;;;;;;21.00;10.82;;;;;;;;;;5054052;28;20029;-65
2022/08/28 04:04:45;;;;;;;24.92;11.32;;;;;;;;;;5054085;28;20051;-64
2022/08/28 04:07:12;;;;;;;24.88;11.52;;;;;;;;;;5054048;28;20028;-65
2022/08/28 04:09:38;;;;;;;27.10;12.23;;;;;;;;;;5054327;28;20033;-65
2022/08/28 04:12:04;;;;;;;26.83;12.27;;;;;;;;;;5053385;28;20755;-65
2022/08/28 04:14:30;;;;;;;24.40;11.10;;;;;;;;;;5053973;28;20028;-65
2022/08/28 04:16:56;;;;;;;21.67;10.48;;;;;;;;;;5052670;28;20029;-63
2022/08/28 04:19:22;;;;;;;28.55;12.32;;;;;;;;;;5052360;28;20186;-64
2022/08/28 04:21:48;;;;;;;24.00;11.80;;;;;;;;;;5054115;28;20032;-63
2022/08/28 04:24:14;;;;;;;20.23;11.23;;;;;;;;;;5054014;28;20032;-62
2022/08/28 04:26:40;;;;;;;22.95;12.18;;;;;;;;;;5053877;28;20036;-64
2022/08/28 04:29:06;;;;;;;22.45;11.20;;;;;;;;;;5053268;28;20033;-63
2022/08/28 04:31:33;;;;;;;19.60;10.85;;;;;;;;;;5053508;28;20025;-64
2022/08/28 04:34:00;;;;;;;29.70;12.02;;;;;;;;;;5041083;28;20026;-65
2022/08/28 04:36:27;;;;;;;26.50;11.77;;;;;;;;;;5033419;28;20025;-64
2022/08/28 04:38:53;;;;;;;22.63;12.27;;;;;;;;;;5031914;28;20033;-64
2022/08/28 04:41:20;;;;;;;26.38;13.70;;;;;;;;;;5033266;28;20108;-64
2022/08/28 04:43:46;;;;;;;20.98;11.98;;;;;;;;;;5033200;28;20486;-64
2022/08/28 04:46:14;;;;;;;23.90;11.98;;;;;;;;;;5032896;28;20031;-64
2022/08/28 04:48:40;;;;;;;21.85;11.95;;;;;;;;;;5033212;28;20109;-64
2022/08/28 04:53:41;;;;;;;22.17;12.52;;;;;;;;;;5048491;28;20413;-61
2022/08/28 04:56:08;;;;;;;21.58;12.32;;;;;;;;;;5052605;28;20024;-62
2022/08/28 04:58:34;;;;;;;25.30;12.55;;;;;;;;;;5052285;28;20400;-63
2022/08/28 05:01:05;;;;;;;30.52;13.88;;;;;;;;;;5051477;28;20025;-62
2022/08/28 05:03:31;;;;;;;20.58;12.07;;;;;;;;;;5071451;28;20024;-62
2022/08/28 05:05:57;;;;;;;23.30;12.00;;;;;;;;;;5071126;28;20114;-62
2022/08/28 05:08:26;;;;;;;25.33;12.73;;;;;;;;;;5072014;28;20025;-63
2022/08/28 05:10:53;;;;;;;23.33;11.95;;;;;;;;;;5071213;28;20111;-63
2022/08/28 05:13:20;;;;;;;21.25;12.30;;;;;;;;;;5072233;28;20500;-62
2022/08/28 05:15:47;;;;;;;23.67;12.18;;;;;;;;;;5072222;28;20028;-63
2022/08/28 05:18:14;;;;;;;21.98;11.95;;;;;;;;;;5071970;28;20477;-62
2022/08/28 05:20:42;;;;;;;36.60;12.73;;;;;;;;;;5070991;28;20097;-62
2022/08/28 05:23:08;;;;;;;25.25;13.25;;;;;;;;;;5072083;28;20029;-62
2022/08/28 05:25:36;;;;;;;26.67;12.70;;;;;;;;;;5072202;28;20028;-63
2022/08/28 05:28:02;;;;;;;24.90;12.45;;;;;;;;;;5070384;28;20396;-62
2022/08/28 05:30:28;;;;;;;22.90;13.23;;;;;;;;;;5070803;28;20036;-62
2022/08/28 05:32:54;;;;;;;23.00;11.82;;;;;;;;;;5070376;28;20366;-63
2022/08/28 05:35:20;;;;;;;23.83;12.90;;;;;;;;;;5071781;28;20474;-62
2022/08/28 05:37:46;;;;;;;23.30;12.35;;;;;;;;;;5071709;28;20027;-62
2022/08/28 05:40:12;;;;;;;27.58;12.38;;;;;;;;;;5071874;28;20031;-62
2022/08/28 05:42:39;;;;;;;22.10;11.95;;;;;;;;;;5071653;28;20079;-61
2022/08/28 05:45:05;;;;;;;28.50;16.88;;;;;;;;;;5070623;28;20020;-62
2022/08/28 05:47:31;;;;;;;25.13;12.75;;;;;;;;;;5070326;28;20021;-61
2022/08/28 05:49:58;;;;;;;24.85;12.40;;;;;;;;;;5071853;28;20027;-62
2022/08/28 05:52:24;;;;;;;21.48;12.13;;;;;;;;;;5071735;28;20036;-62
2022/08/28 05:54:50;;;;;;;23.15;13.77;;;;;;;;;;5071510;28;20032;-61
2022/08/28 05:57:17;;;;;;;21.63;13.20;;;;;;;;;;5071577;28;20472;-62
2022/08/28 05:59:44;;;;;;;23.63;12.45;;;;;;;;;;5070352;28;20082;-62
2022/08/28 06:02:10;;;;;;;21.20;12.88;;;;;;;;;;5071633;28;20124;-62
2022/08/28 06:04:39;;;;;;;24.58;14.48;;;;;;;;;;5070587;28;20123;-62
2022/08/28 06:07:05;;;;;;;20.80;12.52;;;;;;;;;;5071767;28;20032;-61
2022/08/28 06:09:31;;;;;;;25.55;15.18;;;;;;;;;;5071521;28;20033;-62
2022/08/28 06:11:58;;;;;;;26.58;14.07;;;;;;;;;;5071510;28;20643;-62
2022/08/28 06:14:24;;;;;;;20.23;11.57;;;;;;;;;;5070013;28;20469;-63
2022/08/28 06:16:53;;;;;;;22.02;12.55;;;;;;;;;;5071636;28;20074;-60
2022/08/28 06:19:19;;;;;;;22.17;12.57;;;;;;;;;;5070127;28;20024;-61
2022/08/28 06:21:47;;;;;;;24.58;13.38;;;;;;;;;;5070504;28;20496;-64
2022/08/28 06:24:13;;;;;;;22.60;12.88;;;;;;;;;;5072100;28;20082;-61
2022/08/28 06:26:40;;;;;;;22.88;11.88;;;;;;;;;;5071416;28;20032;-62
2022/08/28 06:29:07;;;;;;;20.70;11.25;;;;;;;;;;5071178;28;20028;-63
2022/08/28 06:31:33;;;;;;;24.88;11.65;;;;;;;;;;5071354;28;20090;-60
2022/08/28 06:34:00;;;;;;;21.35;10.93;;;;;;;;;;5071279;28;20032;-62
2022/08/28 06:36:27;;;;;;;20.10;10.55;;;;;;;;;;5069680;28;20055;-63
2022/08/28 06:38:54;;;;;;;19.83;10.75;;;;;;;;;;5069878;28;20115;-63
2022/08/28 06:41:20;;;;;;;20.50;11.02;;;;;;;;;;5071247;28;20021;-62
2022/08/28 06:43:46;;;;;;;21.75;11.70;;;;;;;;;;5070002;28;20119;-63
2022/08/28 06:46:12;;;;;;;23.40;11.57;;;;;;;;;;5071183;28;20596;-63
2022/08/28 06:48:38;;;;;;;24.65;12.20;;;;;;;;;;5070613;28;20048;-63
2022/08/28 06:51:05;;;;;;;20.92;10.50;;;;;;;;;;5071186;28;20481;-63
2022/08/28 06:53:32;;;;;;;22.00;10.70;;;;;;;;;;5071040;28;20551;-62
2022/08/28 06:55:59;;;;;;;21.20;11.25;;;;;;;;;;5071429;28;20102;-63
2022/08/28 06:58:26;;;;;;;25.33;10.85;;;;;;;;;;5070963;28;20027;-62
2022/08/28 07:01:00;;;;;;;20.52;10.73;;;;;;;;;;5071373;28;20191;-62
2022/08/28 07:03:28;;;;;;;20.60;10.20;;;;;;;;;;5069959;28;20024;-64
2022/08/28 07:05:55;;;;;;;21.33;10.75;;;;;;;;;;5071039;28;20045;-63
2022/08/28 07:08:21;;;;;;;21.40;10.45;;;;;;;;;;5069404;28;20082;-62
2022/08/28 07:10:48;;;;;;;19.42;10.35;;;;;;;;;;5069691;28;20032;-64
2022/08/28 07:13:14;;;;;;;19.40;10.82;;;;;;;;;;5073029;28;20025;-63
2022/08/28 07:15:40;;;;;;;24.10;10.57;;;;;;;;;;5073128;28;20511;-63
2022/08/28 07:18:06;;;;;;;21.90;10.63;;;;;;;;;;5074460;28;20020;-63
2022/08/28 07:20:32;;;;;;;21.40;11.10;;;;;;;;;;5074323;28;20107;-62
2022/08/28 07:22:58;;;;;;;22.25;10.40;;;;;;;;;;5073069;28;20017;-63
2022/08/28 07:25:25;;;;;;;20.20;10.80;;;;;;;;;;5074301;28;20048;-63
2022/08/28 07:27:51;;;;;;;21.85;10.52;;;;;;;;;;5074097;28;20032;-62
2022/08/28 07:30:17;;;;;;;19.40;9.85;;;;;;;;;;5073108;28;20024;-62
2022/08/28 07:32:47;;;;;;;16.63;9.45;;;;;;;;;;5074101;28;20108;-62
2022/08/28 07:35:14;;;;;;;20.08;10.80;;;;;;;;;;5072785;28;20020;-63
2022/08/28 07:37:40;;;;;;;21.05;10.20;;;;;;;;;;5073984;28;20388;-62
2022/08/28 07:40:07;;;;;;;17.13;9.82;;;;;;;;;;5073809;28;20461;-63
2022/08/28 07:45:17;;;;;;;23.20;10.32;;;;;;;;;;5073586;28;20082;-62
2022/08/28 07:47:43;;;;;;;18.80;10.27;;;;;;;;;;5073436;28;20024;-63
2022/08/28 07:50:09;;;;;;;18.42;9.98;;;;;;;;;;5073732;28;20029;-64
2022/08/28 07:52:36;;;;;;;18.33;9.73;;;;;;;;;;5072337;28;20039;-63
2022/08/28 07:55:03;;;;;;;17.50;9.73;;;;;;;;;;5073665;28;20028;-63
2022/08/28 07:57:30;;;;;;;25.15;11.43;;;;;;;;;;5073428;28;20400;-65
2022/08/28 07:59:57;;;;;;;19.55;10.45;;;;;;;;;;5073662;28;20024;-63
2022/08/28 08:02:23;;;;;;;26.80;10.45;;;;;;;;;;5073713;28;20461;-62
2022/08/28 08:04:49;;;;;;;20.77;10.40;;;;;;;;;;5073640;28;20032;-63
2022/08/28 08:07:16;;;;;;;18.98;10.50;;;;;;;;;;5071923;28;20028;-63
2022/08/28 08:09:43;;;;;;;18.23;9.90;;;;;;;;;;5073301;28;20032;-64
2022/08/28 08:12:10;;;;;;;23.98;10.27;;;;;;;;;;5073299;28;20056;-62
2022/08/28 08:14:37;;;;;;;17.75;9.85;;;;;;;;;;5073147;28;20473;-63
2022/08/28 08:17:04;;;;;;;17.98;10.40;;;;;;;;;;5071793;28;20473;-63
2022/08/28 08:19:30;;;;;;;18.52;10.23;;;;;;;;;;5072839;28;20032;-61
2022/08/28 08:21:56;;;;;;;22.90;13.48;;;;;;;;;;5072820;28;20024;-63
2022/08/28 08:24:24;;;;;;;25.27;17.48;;;;;;;;;;5071316;28;20153;-63
2022/08/28 08:26:50;;;;;;;;;;;;;;;;;;5073351;28;20472;-64
2022/08/28 08:29:16;;;;;;;19.70;11.27;;;;;;;;;;5071319;28;19971;-63
2022/08/28 08:31:43;;;;;;;19.77;11.50;;;;;;;;;;5072700;28;20449;-63
2022/08/28 08:34:09;;;;;;;21.83;11.65;;;;;;;;;;5071818;28;20024;-62
2022/08/28 08:36:36;;;;;;;18.17;10.27;;;;;;;;;;5072530;28;20557;-63
2022/08/28 08:39:03;;;;;;;19.53;11.10;;;;;;;;;;5072746;28;20052;-63
2022/08/28 08:41:38;;;;;;;19.75;10.88;;;;;;;;;;5072746;28;20451;-64
2022/08/28 08:44:17;;;;;;;19.23;10.90;;;;;;;;;;5071197;28;20389;-62
2022/08/28 08:46:46;;;;;;;19.05;10.57;;;;;;;;;;5071187;28;20124;-63
2022/08/28 08:49:19;;;;;;;20.80;11.52;;;;;;;;;;5071013;28;20031;-63
2022/08/28 08:52:06;;;;;;;20.02;10.68;;;;;;;;;;5072457;28;20028;-63
2022/08/28 08:54:32;;;;;;;20.27;11.25;;;;;;;;;;5077283;28;20059;-63
2022/08/28 08:57:00;;;;;;;18.77;10.77;;;;;;;;;;5072348;28;20028;-62
2022/08/28 08:59:28;;;;;;;19.70;11.25;;;;;;;;;;5071486;28;20111;-62
2022/08/28 09:01:58;;;;;;;17.98;12.00;;;;;;;;;;5067841;28;20029;-62
2022/08/28 09:04:27;;;;;;;18.80;11.43;;;;;;;;;;5071113;28;20036;-62
2022/08/28 09:06:56;;;;;;;18.75;10.98;;;;;;;;;;5072540;28;20027;-62
2022/08/28 09:09:31;;;;;;;21.35;11.23;;;;;;;;;;5072229;28;20523;-61
2022/08/28 09:12:02;;;;;;;18.88;11.15;;;;;;;;;;5070962;28;20025;-52
2022/08/28 09:14:44;;;;;;;20.30;11.07;;;;;;;;;;5071910;28;20034;-59
2022/08/28 09:17:11;;;;;;;19.75;11.00;;;;;;;;;;5071837;28;20448;-57
2022/08/28 09:19:38;;;;;;;19.20;10.67;;;;;;;;;;5072034;28;20105;-60
2022/08/28 09:22:04;;;;;;;19.00;10.50;;;;;;;;;;5071867;28;20024;-59
2022/08/28 09:24:31;;;;;;;18.50;11.07;;;;;;;;;;5071723;28;20082;-67
2022/08/28 09:27:03;;;;;;;19.00;11.30;;;;;;;;;;5071923;28;20113;-59
2022/08/28 09:29:33;;;;;;;19.48;11.18;;;;;;;;;;5071541;28;20029;-54
2022/08/28 09:32:16;;;;;;;18.02;10.65;;;;;;;;;;5071930;28;20028;-52
2022/08/28 09:34:58;;;;;;;17.33;11.27;;;;;;;;;;5070994;28;20059;-57
2022/08/28 09:37:25;;;;;;;21.02;11.00;;;;;;;;;;5072016;28;20044;-52
2022/08/28 09:40:11;;;;;;;18.10;11.38;;;;;;;;;;5070665;28;20396;-53
2022/08/28 09:45:24;;;;;;;19.00;10.27;;;;;;;;;;5072008;28;20511;-59
2022/08/28 09:47:57;;;;;;;18.80;10.27;;;;;;;;;;5070115;28;20032;-58
2022/08/28 09:50:34;;;;;;;16.88;9.55;;;;;;;;;;5071773;28;20519;-58
2022/08/28 09:53:12;;;;;;;16.25;9.82;;;;;;;;;;5071414;28;20081;-56
2022/08/28 09:55:50;;;;;;;16.95;10.50;;;;;;;;;;5071512;28;20103;-60
2022/08/28 09:58:18;;;;;;;16.33;10.50;;;;;;;;;;5071110;28;20098;-52
2022/08/28 10:00:50;;;;;;;20.42;10.32;;;;;;;;;;5070233;28;20111;-58
2022/08/28 10:03:26;;;;;;;18.23;10.32;;;;;;;;;;5071471;28;20027;-55
2022/08/28 10:05:58;;;;;;;16.65;9.73;;;;;;;;;;5071429;28;20428;-60
2022/08/28 10:08:34;;;;;;;17.70;10.93;;;;;;;;;;5071296;28;20389;-58
2022/08/28 10:11:06;;;;;;;18.55;10.38;;;;;;;;;;5070191;28;20031;-57
2022/08/28 10:13:39;;;;;;;18.73;9.70;;;;;;;;;;5071181;28;20017;-58
2022/08/28 10:16:14;;;;;;;19.20;10.35;;;;;;;;;;5070818;28;20021;-57
2022/08/28 10:18:51;;;;;;;17.40;10.60;;;;;;;;;;5070822;28;20032;-57
2022/08/28 10:21:17;;;;;;;21.73;11.63;;;;;;;;;;5071336;28;20104;-56
2022/08/28 10:23:48;;;;;;;21.38;11.55;;;;;;;;;;5069818;28;20036;-59
2022/08/28 10:26:23;;;;;;;20.70;10.38;;;;;;;;;;5071363;28;20038;-56
2022/08/28 10:28:55;;;;;;;18.25;10.40;;;;;;;;;;5069965;28;20025;-59
2022/08/28 10:31:39;;;;;;;17.92;10.70;;;;;;;;;;5069937;28;20044;-59
2022/08/28 10:34:09;;;;;;;16.30;10.82;;;;;;;;;;5071534;28;20061;-57
2022/08/28 10:36:36;;;;;;;17.75;11.05;;;;;;;;;;5069801;28;20119;-55
2022/08/28 10:39:20;;;;;;;17.98;10.65;;;;;;;;;;5069995;28;20021;-59
2022/08/28 10:41:48;;;;;;;17.73;10.90;;;;;;;;;;5069848;28;20385;-56
2022/08/28 10:44:21;;;;;;;21.00;12.05;;;;;;;;;;5071310;28;20366;-55
2022/08/28 10:46:52;;;;;;;16.77;10.90;;;;;;;;;;5071757;28;20093;-59
2022/08/28 10:49:27;;;;;;;21.60;11.55;;;;;;;;;;5074353;28;20024;-58
2022/08/28 10:52:01;;;;;;;19.20;10.85;;;;;;;;;;5090798;22;20112;-62
2022/08/28 10:54:32;;;;;;;18.50;10.68;;;;;;;;;;5033837;28;20136;-64
2022/08/28 10:57:03;;;;;;;17.65;11.10;;;;;;;;;;5035206;28;20481;-64
2022/08/28 10:59:30;;;;;;;16.77;10.77;;;;;;;;;;5034981;28;20021;-64
2022/08/28 11:01:56;;;;;;;19.85;10.05;;;;;;;;;;5034988;28;20027;-64
2022/08/28 11:04:23;;;;;;;19.65;10.73;;;;;;;;;;5035202;28;20068;-64
2022/08/28 11:06:52;;;;;;;18.02;10.60;;;;;;;;;;5034756;28;20076;-64
2022/08/28 11:09:34;;;;;;;16.52;10.70;;;;;;;;;;5034806;28;20036;-64
2022/08/28 11:12:02;;;;;;;20.65;11.45;;;;;;;;;;5034917;28;20032;-64
2022/08/28 11:14:30;;;;;;;17.02;10.82;;;;;;;;;;5034634;28;20021;-63
2022/08/28 11:17:00;;;;;;;18.13;11.00;;;;;;;;;;5034552;28;20053;-64
2022/08/28 11:19:44;;;;;;;18.80;11.75;;;;;;;;;;5034740;28;20021;-64
2022/08/28 11:22:13;;;;;;;18.63;11.38;;;;;;;;;;5034777;28;20029;-64
2022/08/28 11:24:39;;;;;;;17.83;11.43;;;;;;;;;;5034736;28;20033;-64
2022/08/28 11:27:10;;;;;;;16.90;11.55;;;;;;;;;;5034935;28;20041;-64
2022/08/28 11:29:56;;;;;;;16.33;11.05;;;;;;;;;;5034677;28;20144;-64
2022/08/28 11:32:28;;;;;;;16.42;10.88;;;;;;;;;;5034750;28;20033;-64
2022/08/28 11:34:58;;;;;;;18.33;11.30;;;;;;;;;;5033236;28;20025;-63
2022/08/28 11:37:41;;;;;;;18.77;13.05;;;;;;;;;;5032875;28;20112;-64
2022/08/28 11:40:18;;;;;;;19.90;11.90;;;;;;;;;;5033473;28;20375;-64
2022/08/28 11:42:47;;;;;;;17.25;11.65;;;;;;;;;;5034371;28;20026;-64
2022/08/28 11:45:32;;;;;;;17.52;11.57;;;;;;;;;;5034595;28;20030;-64
2022/08/28 11:47:58;;;;;;;18.42;11.88;;;;;;;;;;5034088;28;20040;-63
2022/08/28 11:50:26;;;;;;;18.15;11.55;;;;;;;;;;5034942;28;20412;-62
2022/08/28 11:53:17;;;;;;;15.82;11.52;;;;;;;;;;5034128;28;20059;-63
2022/08/28 11:55:55;;;;;;;16.88;11.75;;;;;;;;;;5034680;28;20022;-62
2022/08/28 11:58:44;;;;;;;17.35;12.10;;;;;;;;;;5033790;28;20033;-63
2022/08/28 12:01:11;;;;;;;16.90;11.40;;;;;;;;;;5034320;28;20120;-63
2022/08/28 12:03:37;;;;;;;18.65;11.95;;;;;;;;;;5034075;28;20508;-63
2022/08/28 12:06:04;;;;;;;18.05;10.93;;;;;;;;;;5034038;28;20391;-63
2022/08/28 12:08:46;;;;;;;17.65;11.45;;;;;;;;;;5033539;28;20032;-62
2022/08/28 12:11:31;;;;;;;18.92;11.40;;;;;;;;;;5034149;28;20547;-63
2022/08/28 12:13:58;;;;;;;16.40;11.25;;;;;;;;;;5033588;28;20048;-63
2022/08/28 12:16:24;;;;;;;19.33;11.23;;;;;;;;;;5034063;28;20025;-63
2022/08/28 12:18:50;;;;;;;16.05;10.70;;;;;;;;;;5033927;28;20021;-63
2022/08/28 12:21:17;;;;;;;17.75;11.13;;;;;;;;;;5034258;28;20439;-63
2022/08/28 12:23:43;;;;;;;18.60;11.40;;;;;;;;;;5032998;28;20366;-64
2022/08/28 12:26:29;;;;;;;16.15;10.90;;;;;;;;;;5033607;28;20510;-63
2022/08/28 12:29:03;;;;;;;16.10;10.80;;;;;;;;;;5031982;28;20471;-62
2022/08/28 12:34:36;;;;;;;17.85;11.40;;;;;;;;;;5039859;28;20040;-63
2022/08/28 12:37:03;;;;;;;20.27;11.25;;;;;;;;;;5032866;28;20500;-62
2022/08/28 12:39:30;;;;;;;17.60;11.15;;;;;;;;;;5052251;28;20069;-62
2022/08/28 12:41:57;;;;;;;17.90;11.88;;;;;;;;;;5053513;28;20397;-62
2022/08/28 12:44:25;;;;;;;16.67;11.18;;;;;;;;;;5053401;28;20079;-62
2022/08/28 12:46:51;;;;;;;17.50;13.00;;;;;;;;;;5052563;28;20122;-62
2022/08/28 12:49:37;;;;;;;16.10;11.50;;;;;;;;;;5053057;28;20029;-62
2022/08/28 12:52:23;;;;;;;17.45;11.25;;;;;;;;;;5051998;28;20025;-62
2022/08/28 12:54:50;;;;;;;16.90;11.13;;;;;;;;;;5053316;28;20104;-62
2022/08/28 12:57:19;;;;;;;16.67;11.43;;;;;;;;;;5052929;28;20075;-62
2022/08/28 12:59:54;;;;;;;17.77;11.63;;;;;;;;;;5052832;28;20021;-62
2022/08/28 13:02:28;;;;;;;16.58;11.00;;;;;;;;;;5052602;28;20021;-62
2022/08/28 13:04:54;;;;;;;16.20;11.43;;;;;;;;;;5051627;28;20604;-62
2022/08/28 13:07:25;;;;;;;16.45;11.48;;;;;;;;;;5052565;28;20112;-62
2022/08/28 13:09:53;;;;;;;16.75;11.68;;;;;;;;;;4696050;28;10000330;-61
2022/08/28 13:12:24;;;;;;;16.55;11.10;;;;;;;;;;5030003;28;20030;-62
2022/08/28 13:14:51;;;;;;;19.20;11.70;;;;;;;;;;5029293;28;20098;-62
2022/08/28 13:17:37;;;;;;;17.45;11.55;;;;;;;;;;5029679;28;20482;-62
2022/08/28 13:20:06;;;;;;;15.68;11.20;;;;;;;;;;5029169;28;20036;-63
2022/08/28 13:22:40;;;;;;;16.17;11.80;;;;;;;;;;5030063;28;20034;-63
2022/08/28 13:25:07;;;;;;;16.70;11.95;;;;;;;;;;5030139;28;20029;-63
2022/08/28 13:27:34;;;;;;;18.15;11.88;;;;;;;;;;5029713;28;20025;-62
2022/08/28 13:30:03;;;;;;;17.70;11.68;;;;;;;;;;5028516;28;20036;-63
2022/08/28 13:32:31;;;;;;;20.50;11.63;;;;;;;;;;5029258;28;20060;-62
2022/08/28 13:34:57;;;;;;;;;;;;;;;;;;5030051;28;20029;-63
2022/08/28 13:37:44;;;;;;;17.63;11.50;;;;;;;;;;4334150;28;10000534;-64
2022/08/28 13:40:11;;;;;;;16.40;11.10;;;;;;;;;;5027692;28;20509;-62
2022/08/28 13:42:37;;;;;;;20.75;11.30;;;;;;;;;;5029414;28;20152;-63
2022/08/28 13:45:03;;;;;;;21.55;12.05;;;;;;;;;;5029312;28;20131;-58
2022/08/28 13:47:30;;;;;;;18.02;11.77;;;;;;;;;;5027221;28;20029;-62
2022/08/28 13:49:56;;;;;;;18.55;12.13;;;;;;;;;;5027791;28;20025;-61
2022/08/28 13:52:22;;;;;;;16.27;11.57;;;;;;;;;;5028621;28;20036;-61
2022/08/28 13:54:49;;;;;;;18.83;12.25;;;;;;;;;;5028853;28;20030;-62
2022/08/28 13:57:15;;;;;;;19.15;12.27;;;;;;;;;;5027277;28;20394;-62
2022/08/28 13:59:41;;;;;;;17.33;11.85;;;;;;;;;;5028363;28;20040;-62
2022/08/28 14:04:54;;;;;;;17.13;11.70;;;;;;;;;;5031559;28;20147;-62
2022/08/28 14:07:20;;;;;;;15.95;11.50;;;;;;;;;;5030146;28;20068;-63
2022/08/28 14:09:46;;;;;;;16.70;11.95;;;;;;;;;;5030158;28;20034;-63
2022/08/28 14:12:12;;;;;;;17.67;11.35;;;;;;;;;;5031167;28;20051;-64
2022/08/28 14:14:38;;;;;;;19.70;11.57;;;;;;;;;;5031233;28;20030;-63
2022/08/28 14:17:05;;;;;;;16.30;11.18;;;;;;;;;;5030728;28;20032;-63
2022/08/28 14:19:31;;;;;;;18.23;12.07;;;;;;;;;;5031152;28;20037;-63
2022/08/28 14:21:58;;;;;;;18.00;11.82;;;;;;;;;;5033201;28;20112;-62
2022/08/28 14:24:24;;;;;;;18.17;11.80;;;;;;;;;;5035322;28;20017;-64
2022/08/28 14:26:50;;;;;;;17.20;11.60;;;;;;;;;;5035354;28;20040;-62
2022/08/28 14:29:17;;;;;;;16.83;11.82;;;;;;;;;;5035466;28;20414;-61
2022/08/28 14:31:44;;;;;;;16.35;11.52;;;;;;;;;;5035180;28;20029;-62
2022/08/28 14:34:11;;;;;;;17.98;11.60;;;;;;;;;;5035173;28;20026;-60
2022/08/28 14:36:38;;;;;;;17.25;12.15;;;;;;;;;;5035631;28;20029;-60
2022/08/28 14:39:05;;;;;;;17.42;11.70;;;;;;;;;;5034976;28;20029;-61
2022/08/28 14:41:31;;;;;;;18.35;11.73;;;;;;;;;;5051697;28;20033;-61
2022/08/28 14:43:57;;;;;;;17.98;11.80;;;;;;;;;;5054870;28;20104;-62
2022/08/28 14:46:27;;;;;;;17.73;11.80;;;;;;;;;;5052256;28;20047;-62
2022/08/28 14:48:54;;;;;;;16.70;11.70;;;;;;;;;;5053606;28;20120;-63